Nearby METAR Reports

 

MWCR - Owen Roberts, Grand Cayman
Distance from station: NNE 3mi, 4km
Updated: 23/10/2017 14:00
Partly cloudy
Partly cloudy
 Wind from E
Wind: E 21 mph , 33 km/h
Temperature: 90°F , 32°C
Heat Index: 107°F , 42°C
Dew Point: 79°F , 26°C
Humidity: 71%
Barometer: 1011 hPa
Clouds: Partly cloudy
Visibility: 6 miles , 10 km
Cloud details: Partly cloudy 1800 ft
2017/10/23 19:00 MWCR 231900Z 09018KT 9999 SCT018 32/26 Q1011
MWCB - Gerrard Smith, Cayman Brac
Distance from station: ENE 102mi, 164km
Updated: 23/10/2017 14:00
Few Clouds
Few Clouds
 Wind from ESE
Wind: ESE 13 mph , 20 km/h
Temperature: 90°F , 32°C
Heat Index: 104°F , 40°C
Dew Point: 77°F , 25°C
Humidity: 67%
Barometer: 1012 hPa
Clouds: Few Clouds
Visibility: 6 miles , 10 km
Cloud details: Few Clouds 2000 ft
2017/10/23 19:00 MWCB 231900Z 11011KT 9999 FEW020 32/25 Q1012
 
MUCL - Cayo Largo D Sur, Cuba
Distance from station: N 164mi, 264km
Updated: 23/10/2017 13:50
Partly cloudy
Partly cloudy
 Wind from E
Wind: E 15 mph , 24 km/h
Temperature: 88°F , 31°C
Heat Index: 100°F , 38°C
Dew Point: 77°F , 25°C
Humidity: 70%
Barometer: 1013 hPa
Clouds: Partly cloudy
Visibility: 6 miles , 9 km
Cloud details: Partly cloudy 2000 ft
2017/10/23 18:50 MUCL 231850Z 10013KT 080V140 9000 SCT020 31/25 Q1013
MUCF - Cienfuegos(Civ/M, Cuba
Distance from station: NNE 208mi, 335km
Updated: 23/10/2017 13:52
Partly cloudy
Partly cloudy
 Wind from varies
Wind: varies 3 mph , 6 km/h
Temperature: 86°F , 30°C
Heat Index: 95°F , 35°C
Dew Point: 75°F , 24°C
Humidity: 70%
Barometer: 1013 hPa
Clouds: Partly cloudy
Visibility: 6 miles , 9 km
Cloud details: Partly cloudy 2000 ft
2017/10/23 18:52 MUCF 231852Z VRB03KT 9000 SCT020 30/24 Q1013
 
MKJS - Sangster/Montego Bay, Jamaica
Distance from station: ESE 233mi, 375km
Updated: 23/10/2017 13:00
Few Clouds
Few Clouds
 Wind from ENE
Wind: ENE 25 mph , 41 km/h
Temperature: 90°F , 32°C
Heat Index: 99°F , 37°C
Dew Point: 73°F , 23°C
Humidity: 59%
Barometer: 1011 hPa
Clouds: Few Clouds
Visibility: 6 miles , 10 km
Cloud details: Few Clouds 2200 ft
2017/10/23 18:00 MKJS 231800Z 07022KT 9999 FEW022 32/23 Q1011
MUSC - Santa Clara, Cuba
Distance from station: NNE 242mi, 389km
Updated: 23/10/2017 13:56
Mostly cloudy
Mostly cloudy
 Wind from E
Wind: E 13 mph , 20 km/h
Temperature: 86°F , 30°C
Heat Index: 92°F , 33°C
Dew Point: 72°F , 22°C
Humidity: 62%
Barometer: 1013 hPa
Clouds: Mostly cloudy
Visibility: 6 miles , 9 km
Cloud details: Mostly cloudy 2000 ft
2017/10/23 18:56 MUSC 231856Z 08011KT 9000 BKN020 30/22 Q1013
 
MUVR - Varadero, Cuba
Distance from station: N 260mi, 419km
Updated: 23/10/2017 13:51
Partly cloudy
Partly cloudy
 Wind from ESE
Wind: ESE 9 mph , 15 km/h
Temperature: 88°F , 31°C
Heat Index: 96°F , 36°C
Dew Point: 73°F , 23°C
Humidity: 62%
Barometer: 1013 hPa
Clouds: Partly cloudy
Visibility: 6 miles , 10 km
Cloud details: Partly cloudy 2000 ft
2017/10/23 18:51 MUVR 231851Z 12008KT 080V150 9999 SCT020 31/23 Q1013
MUHA - Havana/Jose Mar, Cuba
Distance from station: NNW 264mi, 425km
Updated: 23/10/2017 13:55
Partly cloudy
Partly cloudy
 Wind from SE
Wind: SE 7 mph , 11 km/h
Temperature: 88°F , 31°C
Heat Index: 95°F , 35°C
Dew Point: 72°F , 22°C
Humidity: 59%
Barometer: 1013 hPa
Clouds: Partly cloudy
Visibility: 6 miles , 9 km
Cloud details: Partly cloudy 2500 ft
2017/10/23 18:55 MUHA 231855Z 14006KT 110V190 9000 SCT025 31/22 Q1013
 
MUCM - Camaguey/Iganci, Cuba
Distance from station: NE 273mi, 439km
Updated: 23/10/2017 13:50
Partly cloudy
Partly cloudy
 Wind from ENE
Wind: ENE 15 mph , 24 km/h
Temperature: 86°F , 30°C
Heat Index: 92°F , 33°C
Dew Point: 72°F , 22°C
Humidity: 62%
Barometer: 1014 hPa
Clouds: Partly cloudy
Visibility: 6 miles , 9 km
Cloud details: Partly cloudy 2000 ft
2017/10/23 18:50 MUCM 231850Z 07013KT 9000 SCT020 30/22 Q1014
MUMZ - Manzanillo, Cuba
Distance from station: ENE 287mi, 462km
Updated: 11/10/2016 09:50
NOT Current
Partly cloudy
Partly cloudy
 Wind from ENE
Wind: ENE 12 mph , 19 km/h
Temperature: 84°F , 29°C
Heat Index: 89°F , 32°C
Dew Point: 72°F , 22°C
Humidity: 66%
Barometer: 1014 hPa
Clouds: Partly cloudy
Visibility: 6 miles , 9 km
Cloud details: Partly cloudy 2000 ft
2016/10/11 14:50 MUMZ 111450Z 07010KT 9000 SCT020 29/22 Q1014
 
MUCC - Canagua, Cuba
Distance from station: NE 296mi, 476km
Updated: 23/10/2017 13:53
Partly cloudy
Partly cloudy
 Wind from E
Wind: E 18 mph , 30 km/h
Temperature: 86°F , 30°C
Heat Index: 95°F , 35°C
Dew Point: 75°F , 24°C
Humidity: 70%
Barometer: 1013 hPa
Clouds: Partly cloudy
Visibility: 6 miles , 9 km
Cloud details: Partly cloudy 2000 ft
2017/10/23 18:53 MUCC 231853Z 08016KT 9000 SCT020 30/24 Q1013
MKJP - Kingston/Norman Manley, Jamaica
Distance from station: ESE 315mi, 507km
Updated: 23/10/2017 14:00
Few Clouds
Few Clouds
 Wind from SE
Wind: SE 24 mph , 39 km/h
Temperature: 91°F , 33°C
Heat Index: 98°F , 37°C
Dew Point: 72°F , 22°C
Humidity: 52%
Barometer: 1010 hPa
Clouds: Few Clouds
Visibility: 6 miles , 10 km
Cloud details: Few Clouds 2200 ft
2017/10/23 19:00 MKJP 231900Z 13021KT 9999 FEW022 33/22 Q1010
 
MHPL - Puerto Lempira, Honduras
Distance from station: SSW 318mi, 513km
Updated: 23/10/2017 13:00
Thunderstorm rain, Overcast
Thunderstorm rain, Overcast
 Wind from ENE
Wind: ENE 9 mph , 15 km/h
Temperature: 77°F , 25°C
Dew Point: 77°F , 25°C
Humidity: 100%
Barometer: 1009 hPa
Summary: Thunderstorm Rain
Clouds: Overcast
Visibility: 3 miles , 5 km
Cloud details: Mostly cloudy 2600 ft
Overcast 8000 ft
2017/10/23 18:00 MHPL 231800Z 07008KT 5000 TSRA BKN026CB OVC080 25/25 Q1009 5 KM ALL VCSH CB TCU ALL HZ
MUHG - Holguin (civ/Mil, Cuba
Distance from station: ENE 345mi, 555km
Updated: 23/10/2017 13:51
Partly cloudy
Partly cloudy
 Wind from ESE
Wind: ESE 13 mph , 20 km/h
Temperature: 88°F , 31°C
Heat Index: 95°F , 35°C
Dew Point: 72°F , 22°C
Humidity: 59%
Barometer: 1012 hPa
Clouds: Partly cloudy
Visibility: 6 miles , 9 km
Cloud details: Partly cloudy 2500 ft
2017/10/23 18:51 MUHG 231851Z 11011KT 9000 SCT025 31/22 Q1012